Aérodrome :
LOGIN :

S'inscrire | Disclaimer

   EN    FR    IT 

 










Légende :    VFR   VFR Marginal   IFR   IFR Intensif   IFR Très Intensif
Visi : 
Plafond : 
>= 8 km
>= 3000ft
5 à 8 km
1000 à 3000 ft
1500m à 5 km
500 à 1000 ft
800 à 1500m
200 à 500 ft
< 800m
< 200 ft
Symboles :   Orages  Brouillard  Fortes neiges  Fortes précipitations  Vent > 20 kt
SIGMETs :   Divers  Orages  Givrage  Turbulence  Onde Orograph.  Cendres Volcan.







- Altitude de l'aérodrome : 526 ft
- Code IATA : LTN
- Voir les cartes d'approche


EGGW - London Luton

DERNIER METAR :
  • 200120Z AUTO 35007KT 2300 DZ OVC001 08/08 Q1017

METARs EXPIRÉS :
  • 200050Z AUTO 34008KT 3100 -RADZ OVC002 08/08 Q1017
  • 200020Z AUTO 35008KT 6000 OVC002 08/08 Q1017
  • 192350Z AUTO 35005KT 3900 -DZ OVC002 08/08 Q1017 REDZ
  • 192320Z AUTO 01005KT 2700 DZ OVC002 08/08 Q1017
  • 192250Z AUTO 34008KT 3200 BR OVC003 09/08 Q1016

TAF TAF EGGW
Valide du 20 à 00h jusqu'au 21 à 00h UTC


192302Z 2000/2024 34009KT 3000 BR BKN005
TEMPO 2000/2010 1200 DZ BKN002
PROB40 2000/2009 0300 FG OVC001
BECMG 2010/2013 9999 NSW BKN018
TEMPO 2010/2013 RADZ
TEMPO 2011/2020 35015G25KT
TEMPO 2013/2020 8000 -SHRA BKN010
TEMPO 2020/2024 BKN009
ATIS : +44 1582 395 204
Pas de NOTAMs connus pour ce terrain.



MET'MAP, la Météo Aéronautique d'un coup d'oeil ! - Copyright ORBIFLY Décembre 2007 - Disclaimer

ORBIFLY MET'MAP TEAM :

Programmation & Développement : Alexandra Zaïnal
Conception & Développement : Baudouin d'Aumeries
Co-Programmation & Développement : Marc-Olivier Méhu
Soutien technique & logistique : Manuel Goepfert

Contact : metmap@orbifly.com




SOURCES & CREDITS :

   NOAA